Aérodrome :
LOGIN :

S'inscrire | Disclaimer

   EN    FR    IT 

 










Légende :    VFR   VFR Marginal   IFR   IFR Intensif   IFR Très Intensif
Visi : 
Plafond : 
>= 8 km
>= 3000ft
5 à 8 km
1000 à 3000 ft
1500m à 5 km
500 à 1000 ft
800 à 1500m
200 à 500 ft
< 800m
< 200 ft
Symboles :   Orages  Brouillard  Fortes neiges  Fortes précipitations  Vent > 20 kt
SIGMETs :   Divers  Orages  Givrage  Turbulence  Onde Orograph.  Cendres Volcan.






- Altitude de l'aérodrome : -13 ft
- Code IATA : LEY


EHLE - Lelystad

DERNIER METAR :
  • 281325Z AUTO 19009KT 160V230 9999 FEW040 18/10 Q1020 NOSIG

METARs EXPIRÉS :
  • 281255Z AUTO 18009KT 140V220 9999 SCT033 17/10 Q1020 NOSIG
  • 281225Z AUTO 20009KT 150V240 9999 FEW033 18/11 Q1021 NOSIG
  • 281155Z AUTO 19010KT 160V230 9999 FEW033 SCT043 17/10 Q1021 NOSIG
  • 281125Z AUTO 20008KT 110V240 9999 SCT023 BKN026 18/12 Q1021 NOSIG
  • 281055Z AUTO 20009KT 150V240 9999 NSC 17/12 Q1021 NOSIG

TAF TAF EHLE
Valide du 28 à 12h jusqu'au 29 à 18h UTC


281054Z 2812/2918 19010KT 9999 FEW027
BECMG 2816/2818 16008KT
TEMPO 2906/2918 27020G32KT 4000 SHRA RA SCT018CB BKN020
BECMG 2907/2910 27015KT



MET'MAP, la Météo Aéronautique d'un coup d'oeil ! - Copyright ORBIFLY Décembre 2007 - Disclaimer

ORBIFLY MET'MAP TEAM :

Programmation & Développement : Alexandra Zaïnal
Sur une idée originale de : Baudouin d'Aumeries
Assistance à la programmation : Marc-Olivier Méhu
Soutien technique & logistique : Manuel Goepfert

Contact : metmap@orbifly.com




SOURCES & CREDITS :

   NOAA